sensor_id;sensor_type;location;lat;lon;timestamp;P1;durP1;ratioP1;P2;durP2;ratioP2
77872;SDS011;67068;52.116;4.440;2024-01-25T00:01:04;11.87;;;2.30;;
77872;SDS011;67068;52.116;4.440;2024-01-25T00:03:29;15.60;;;2.17;;
77872;SDS011;67068;52.116;4.440;2024-01-25T00:05:54;17.40;;;2.20;;
77872;SDS011;67068;52.116;4.440;2024-01-25T00:08:23;14.63;;;2.27;;
77872;SDS011;67068;52.116;4.440;2024-01-25T00:10:51;17.30;;;2.85;;
77872;SDS011;67068;52.116;4.440;2024-01-25T00:13:16;14.10;;;2.53;;
77872;SDS011;67068;52.116;4.440;2024-01-25T00:15:42;16.17;;;2.88;;
77872;SDS011;67068;52.116;4.440;2024-01-25T00:18:07;14.43;;;2.10;;
77872;SDS011;67068;52.116;4.440;2024-01-25T00:20:32;13.43;;;2.63;;
77872;SDS011;67068;52.116;4.440;2024-01-25T00:22:57;8.40;;;1.77;;
77872;SDS011;67068;52.116;4.440;2024-01-25T00:25:22;15.67;;;2.70;;
77872;SDS011;67068;52.116;4.440;2024-01-25T00:27:48;15.07;;;2.57;;
77872;SDS011;67068;52.116;4.440;2024-01-25T00:30:13;10.93;;;3.00;;
77872;SDS011;67068;52.116;4.440;2024-01-25T00:32:38;18.85;;;2.05;;
77872;SDS011;67068;52.116;4.440;2024-01-25T00:35:04;14.87;;;2.60;;
77872;SDS011;67068;52.116;4.440;2024-01-25T00:37:29;12.23;;;2.20;;
77872;SDS011;67068;52.116;4.440;2024-01-25T00:39:55;15.57;;;2.00;;
77872;SDS011;67068;52.116;4.440;2024-01-25T00:42:21;11.80;;;2.28;;
77872;SDS011;67068;52.116;4.440;2024-01-25T00:44:47;15.93;;;2.28;;
77872;SDS011;67068;52.116;4.440;2024-01-25T00:47:12;11.65;;;2.60;;
77872;SDS011;67068;52.116;4.440;2024-01-25T00:49:38;15.23;;;1.92;;
77872;SDS011;67068;52.116;4.440;2024-01-25T00:52:03;16.35;;;2.30;;
77872;SDS011;67068;52.116;4.440;2024-01-25T00:54:29;19.30;;;3.25;;
77872;SDS011;67068;52.116;4.440;2024-01-25T00:56:55;15.23;;;2.85;;
77872;SDS011;67068;52.116;4.440;2024-01-25T00:59:20;14.15;;;2.17;;
77872;SDS011;67068;52.116;4.440;2024-01-25T01:01:46;12.40;;;1.88;;
77872;SDS011;67068;52.116;4.440;2024-01-25T01:04:12;14.45;;;2.28;;
77872;SDS011;67068;52.116;4.440;2024-01-25T01:06:37;22.97;;;2.90;;
77872;SDS011;67068;52.116;4.440;2024-01-25T01:09:02;18.83;;;2.80;;
77872;SDS011;67068;52.116;4.440;2024-01-25T01:11:27;13.67;;;2.97;;
77872;SDS011;67068;52.116;4.440;2024-01-25T01:13:53;19.53;;;2.60;;
77872;SDS011;67068;52.116;4.440;2024-01-25T01:16:18;15.67;;;2.50;;
77872;SDS011;67068;52.116;4.440;2024-01-25T01:18:45;16.67;;;2.47;;
77872;SDS011;67068;52.116;4.440;2024-01-25T01:21:10;12.83;;;2.07;;
77872;SDS011;67068;52.116;4.440;2024-01-25T01:23:35;15.97;;;2.50;;
77872;SDS011;67068;52.116;4.440;2024-01-25T01:26:00;18.50;;;2.83;;
77872;SDS011;67068;52.116;4.440;2024-01-25T01:28:25;12.23;;;2.50;;
77872;SDS011;67068;52.116;4.440;2024-01-25T01:30:51;17.93;;;2.47;;
77872;SDS011;67068;52.116;4.440;2024-01-25T01:33:16;15.00;;;2.43;;
77872;SDS011;67068;52.116;4.440;2024-01-25T01:35:41;16.37;;;2.73;;
77872;SDS011;67068;52.116;4.440;2024-01-25T01:38:06;17.07;;;2.70;;
77872;SDS011;67068;52.116;4.440;2024-01-25T01:40:32;20.97;;;3.07;;
77872;SDS011;67068;52.116;4.440;2024-01-25T01:43:00;15.63;;;2.60;;
77872;SDS011;67068;52.116;4.440;2024-01-25T01:45:25;14.68;;;2.20;;
77872;SDS011;67068;52.116;4.440;2024-01-25T01:47:51;25.73;;;3.55;;
77872;SDS011;67068;52.116;4.440;2024-01-25T01:50:16;14.37;;;2.50;;
77872;SDS011;67068;52.116;4.440;2024-01-25T01:52:41;16.60;;;2.80;;
77872;SDS011;67068;52.116;4.440;2024-01-25T01:55:07;15.30;;;2.85;;
77872;SDS011;67068;52.116;4.440;2024-01-25T01:57:33;19.27;;;2.85;;
77872;SDS011;67068;52.116;4.440;2024-01-25T01:59:59;18.48;;;3.47;;
77872;SDS011;67068;52.116;4.440;2024-01-25T02:02:25;17.67;;;2.70;;
77872;SDS011;67068;52.116;4.440;2024-01-25T02:04:50;20.33;;;2.83;;
77872;SDS011;67068;52.116;4.440;2024-01-25T02:07:15;12.53;;;2.40;;
77872;SDS011;67068;52.116;4.440;2024-01-25T02:09:41;18.50;;;2.77;;
77872;SDS011;67068;52.116;4.440;2024-01-25T02:12:06;14.60;;;2.40;;
77872;SDS011;67068;52.116;4.440;2024-01-25T02:14:32;16.40;;;2.67;;
77872;SDS011;67068;52.116;4.440;2024-01-25T02:16:57;16.87;;;2.70;;
77872;SDS011;67068;52.116;4.440;2024-01-25T02:19:22;17.07;;;2.80;;
77872;SDS011;67068;52.116;4.440;2024-01-25T02:21:47;16.03;;;3.37;;
77872;SDS011;67068;52.116;4.440;2024-01-25T02:24:13;19.25;;;2.90;;
77872;SDS011;67068;52.116;4.440;2024-01-25T02:26:39;15.80;;;2.70;;
77872;SDS011;67068;52.116;4.440;2024-01-25T02:29:04;22.03;;;3.73;;
77872;SDS011;67068;52.116;4.440;2024-01-25T02:31:30;12.90;;;2.55;;
77872;SDS011;67068;52.116;4.440;2024-01-25T02:33:55;14.57;;;2.53;;
77872;SDS011;67068;52.116;4.440;2024-01-25T02:36:21;13.93;;;2.33;;
77872;SDS011;67068;52.116;4.440;2024-01-25T02:38:47;21.52;;;2.75;;
77872;SDS011;67068;52.116;4.440;2024-01-25T02:41:12;15.27;;;2.43;;
77872;SDS011;67068;52.116;4.440;2024-01-25T02:43:37;19.73;;;2.40;;
77872;SDS011;67068;52.116;4.440;2024-01-25T02:46:02;14.67;;;2.83;;
77872;SDS011;67068;52.116;4.440;2024-01-25T02:48:28;17.50;;;2.10;;
77872;SDS011;67068;52.116;4.440;2024-01-25T02:50:53;14.43;;;2.30;;
77872;SDS011;67068;52.116;4.440;2024-01-25T02:53:18;15.83;;;2.80;;
77872;SDS011;67068;52.116;4.440;2024-01-25T02:55:43;17.87;;;3.60;;
77872;SDS011;67068;52.116;4.440;2024-01-25T02:58:08;17.33;;;2.63;;
77872;SDS011;67068;52.116;4.440;2024-01-25T03:00:34;15.67;;;2.90;;
77872;SDS011;67068;52.116;4.440;2024-01-25T03:02:59;17.90;;;2.80;;
77872;SDS011;67068;52.116;4.440;2024-01-25T03:05:24;17.00;;;2.67;;
77872;SDS011;67068;52.116;4.440;2024-01-25T03:07:49;12.13;;;1.80;;
77872;SDS011;67068;52.116;4.440;2024-01-25T03:10:15;15.55;;;3.00;;
77872;SDS011;67068;52.116;4.440;2024-01-25T03:12:41;17.27;;;2.43;;
77872;SDS011;67068;52.116;4.440;2024-01-25T03:15:06;13.67;;;2.37;;
77872;SDS011;67068;52.116;4.440;2024-01-25T03:17:31;15.98;;;2.95;;
77872;SDS011;67068;52.116;4.440;2024-01-25T03:19:56;19.30;;;2.87;;
77872;SDS011;67068;52.116;4.440;2024-01-25T03:22:22;13.53;;;2.93;;
77872;SDS011;67068;52.116;4.440;2024-01-25T03:24:47;13.55;;;2.20;;
77872;SDS011;67068;52.116;4.440;2024-01-25T03:27:12;14.35;;;2.90;;
77872;SDS011;67068;52.116;4.440;2024-01-25T03:29:42;13.70;;;2.13;;
77872;SDS011;67068;52.116;4.440;2024-01-25T03:32:11;18.23;;;2.17;;
77872;SDS011;67068;52.116;4.440;2024-01-25T03:34:36;18.63;;;2.70;;
77872;SDS011;67068;52.116;4.440;2024-01-25T03:37:01;17.80;;;3.57;;
77872;SDS011;67068;52.116;4.440;2024-01-25T03:39:26;17.17;;;3.23;;
77872;SDS011;67068;52.116;4.440;2024-01-25T03:41:51;16.83;;;2.53;;
77872;SDS011;67068;52.116;4.440;2024-01-25T03:44:17;16.57;;;2.30;;
77872;SDS011;67068;52.116;4.440;2024-01-25T03:46:42;12.93;;;2.57;;
77872;SDS011;67068;52.116;4.440;2024-01-25T03:49:07;16.17;;;2.97;;
77872;SDS011;67068;52.116;4.440;2024-01-25T03:51:32;11.23;;;2.60;;
77872;SDS011;67068;52.116;4.440;2024-01-25T03:53:58;16.42;;;2.30;;
77872;SDS011;67068;52.116;4.440;2024-01-25T03:56:23;18.57;;;5.67;;
77872;SDS011;67068;52.116;4.440;2024-01-25T03:58:49;12.50;;;2.35;;
77872;SDS011;67068;52.116;4.440;2024-01-25T04:01:14;13.97;;;2.60;;
77872;SDS011;67068;52.116;4.440;2024-01-25T04:03:39;13.50;;;2.30;;
77872;SDS011;67068;52.116;4.440;2024-01-25T04:06:04;10.80;;;1.73;;
77872;SDS011;67068;52.116;4.440;2024-01-25T04:08:29;16.10;;;2.43;;
77872;SDS011;67068;52.116;4.440;2024-01-25T04:10:55;12.87;;;2.53;;
77872;SDS011;67068;52.116;4.440;2024-01-25T04:13:20;12.30;;;2.47;;
77872;SDS011;67068;52.116;4.440;2024-01-25T04:15:45;15.17;;;2.90;;
77872;SDS011;67068;52.116;4.440;2024-01-25T04:18:10;15.47;;;3.10;;
77872;SDS011;67068;52.116;4.440;2024-01-25T04:20:36;13.37;;;2.90;;
77872;SDS011;67068;52.116;4.440;2024-01-25T04:23:01;12.48;;;2.30;;
77872;SDS011;67068;52.116;4.440;2024-01-25T04:25:26;14.38;;;2.08;;
77872;SDS011;67068;52.116;4.440;2024-01-25T04:27:52;13.23;;;2.37;;
77872;SDS011;67068;52.116;4.440;2024-01-25T04:30:17;14.00;;;2.60;;
77872;SDS011;67068;52.116;4.440;2024-01-25T04:32:43;14.60;;;2.70;;
77872;SDS011;67068;52.116;4.440;2024-01-25T04:35:08;16.00;;;2.43;;
77872;SDS011;67068;52.116;4.440;2024-01-25T04:37:34;15.57;;;2.50;;
77872;SDS011;67068;52.116;4.440;2024-01-25T04:39:59;13.40;;;2.00;;
77872;SDS011;67068;52.116;4.440;2024-01-25T04:42:24;14.27;;;2.00;;
77872;SDS011;67068;52.116;4.440;2024-01-25T04:44:50;12.73;;;2.10;;
77872;SDS011;67068;52.116;4.440;2024-01-25T04:47:15;10.60;;;2.57;;
77872;SDS011;67068;52.116;4.440;2024-01-25T04:49:40;11.63;;;1.93;;
77872;SDS011;67068;52.116;4.440;2024-01-25T04:52:05;11.17;;;2.43;;
77872;SDS011;67068;52.116;4.440;2024-01-25T04:54:31;13.63;;;1.95;;
77872;SDS011;67068;52.116;4.440;2024-01-25T04:56:56;15.07;;;2.20;;
77872;SDS011;67068;52.116;4.440;2024-01-25T04:59:21;15.53;;;2.13;;
77872;SDS011;67068;52.116;4.440;2024-01-25T05:01:47;13.97;;;2.10;;
77872;SDS011;67068;52.116;4.440;2024-01-25T05:04:12;13.83;;;1.77;;
77872;SDS011;67068;52.116;4.440;2024-01-25T05:06:37;12.33;;;2.10;;
77872;SDS011;67068;52.116;4.440;2024-01-25T05:09:03;13.73;;;2.60;;
77872;SDS011;67068;52.116;4.440;2024-01-25T05:11:28;13.40;;;2.73;;
77872;SDS011;67068;52.116;4.440;2024-01-25T05:13:53;12.20;;;2.13;;
77872;SDS011;67068;52.116;4.440;2024-01-25T05:16:18;15.20;;;2.27;;
77872;SDS011;67068;52.116;4.440;2024-01-25T05:18:43;11.70;;;2.37;;
77872;SDS011;67068;52.116;4.440;2024-01-25T05:21:09;16.13;;;2.57;;
77872;SDS011;67068;52.116;4.440;2024-01-25T05:23:34;16.88;;;2.70;;
77872;SDS011;67068;52.116;4.440;2024-01-25T05:26:00;10.97;;;1.90;;
77872;SDS011;67068;52.116;4.440;2024-01-25T05:28:26;12.43;;;2.05;;
77872;SDS011;67068;52.116;4.440;2024-01-25T05:30:51;16.07;;;2.40;;
77872;SDS011;67068;52.116;4.440;2024-01-25T05:33:17;11.03;;;2.50;;
77872;SDS011;67068;52.116;4.440;2024-01-25T05:35:42;16.07;;;3.20;;
77872;SDS011;67068;52.116;4.440;2024-01-25T05:38:07;12.07;;;2.13;;
77872;SDS011;67068;52.116;4.440;2024-01-25T05:40:32;13.60;;;2.30;;
77872;SDS011;67068;52.116;4.440;2024-01-25T05:42:58;14.63;;;2.37;;
77872;SDS011;67068;52.116;4.440;2024-01-25T05:45:23;12.15;;;2.40;;
77872;SDS011;67068;52.116;4.440;2024-01-25T05:47:49;9.70;;;2.25;;
77872;SDS011;67068;52.116;4.440;2024-01-25T05:50:15;16.45;;;2.70;;
77872;SDS011;67068;52.116;4.440;2024-01-25T05:52:40;12.10;;;2.42;;
77872;SDS011;67068;52.116;4.440;2024-01-25T05:55:05;13.07;;;2.10;;
77872;SDS011;67068;52.116;4.440;2024-01-25T05:57:31;9.23;;;1.95;;
77872;SDS011;67068;52.116;4.440;2024-01-25T05:59:57;15.00;;;2.10;;
77872;SDS011;67068;52.116;4.440;2024-01-25T06:02:22;13.68;;;1.90;;
77872;SDS011;67068;52.116;4.440;2024-01-25T06:04:47;13.33;;;2.20;;
77872;SDS011;67068;52.116;4.440;2024-01-25T06:07:12;15.23;;;2.73;;
77872;SDS011;67068;52.116;4.440;2024-01-25T06:09:38;15.50;;;2.47;;
77872;SDS011;67068;52.116;4.440;2024-01-25T06:12:03;14.07;;;2.55;;
77872;SDS011;67068;52.116;4.440;2024-01-25T06:14:29;9.40;;;1.50;;
77872;SDS011;67068;52.116;4.440;2024-01-25T06:16:55;12.10;;;2.45;;
77872;SDS011;67068;52.116;4.440;2024-01-25T06:19:20;12.13;;;1.97;;
77872;SDS011;67068;52.116;4.440;2024-01-25T06:21:45;12.63;;;2.10;;
77872;SDS011;67068;52.116;4.440;2024-01-25T06:24:10;8.27;;;1.93;;
77872;SDS011;67068;52.116;4.440;2024-01-25T06:26:35;14.20;;;2.40;;
77872;SDS011;67068;52.116;4.440;2024-01-25T06:29:01;14.80;;;2.60;;
77872;SDS011;67068;52.116;4.440;2024-01-25T06:31:26;13.80;;;3.00;;
77872;SDS011;67068;52.116;4.440;2024-01-25T06:33:51;16.87;;;2.50;;
77872;SDS011;67068;52.116;4.440;2024-01-25T06:36:18;13.13;;;1.98;;
77872;SDS011;67068;52.116;4.440;2024-01-25T06:38:43;12.85;;;2.20;;
77872;SDS011;67068;52.116;4.440;2024-01-25T06:41:08;17.87;;;2.50;;
77872;SDS011;67068;52.116;4.440;2024-01-25T06:43:34;12.07;;;1.92;;
77872;SDS011;67068;52.116;4.440;2024-01-25T06:45:59;12.63;;;2.67;;
77872;SDS011;67068;52.116;4.440;2024-01-25T06:48:24;15.40;;;2.43;;
77872;SDS011;67068;52.116;4.440;2024-01-25T06:50:49;16.27;;;2.77;;
77872;SDS011;67068;52.116;4.440;2024-01-25T06:53:15;12.90;;;2.35;;
77872;SDS011;67068;52.116;4.440;2024-01-25T06:55:41;11.15;;;2.30;;
77872;SDS011;67068;52.116;4.440;2024-01-25T06:58:06;11.90;;;2.07;;
77872;SDS011;67068;52.116;4.440;2024-01-25T07:00:31;12.80;;;2.13;;
77872;SDS011;67068;52.116;4.440;2024-01-25T07:02:56;12.23;;;1.77;;
77872;SDS011;67068;52.116;4.440;2024-01-25T07:05:22;13.17;;;2.67;;
77872;SDS011;67068;52.116;4.440;2024-01-25T07:07:47;13.13;;;3.58;;
77872;SDS011;67068;52.116;4.440;2024-01-25T07:10:12;14.67;;;3.40;;
77872;SDS011;67068;52.116;4.440;2024-01-25T07:12:38;15.10;;;3.60;;
77872;SDS011;67068;52.116;4.440;2024-01-25T07:15:03;14.53;;;3.67;;
77872;SDS011;67068;52.116;4.440;2024-01-25T07:17:28;12.13;;;2.95;;
77872;SDS011;67068;52.116;4.440;2024-01-25T07:19:54;14.20;;;2.77;;
77872;SDS011;67068;52.116;4.440;2024-01-25T07:22:19;15.03;;;2.93;;
77872;SDS011;67068;52.116;4.440;2024-01-25T07:24:46;12.27;;;2.83;;
77872;SDS011;67068;52.116;4.440;2024-01-25T07:27:11;10.00;;;2.50;;
77872;SDS011;67068;52.116;4.440;2024-01-25T07:29:37;12.88;;;3.17;;
77872;SDS011;67068;52.116;4.440;2024-01-25T07:32:02;15.13;;;3.73;;
77872;SDS011;67068;52.116;4.440;2024-01-25T07:34:28;17.42;;;3.13;;
77872;SDS011;67068;52.116;4.440;2024-01-25T07:36:53;16.67;;;3.20;;
77872;SDS011;67068;52.116;4.440;2024-01-25T07:39:18;14.07;;;3.07;;
77872;SDS011;67068;52.116;4.440;2024-01-25T07:41:43;17.00;;;3.00;;
77872;SDS011;67068;52.116;4.440;2024-01-25T07:44:09;13.03;;;2.60;;
77872;SDS011;67068;52.116;4.440;2024-01-25T07:46:34;14.73;;;2.73;;
77872;SDS011;67068;52.116;4.440;2024-01-25T07:48:59;14.70;;;2.90;;
77872;SDS011;67068;52.116;4.440;2024-01-25T07:51:24;13.93;;;2.73;;
77872;SDS011;67068;52.116;4.440;2024-01-25T07:53:53;16.30;;;3.17;;
77872;SDS011;67068;52.116;4.440;2024-01-25T07:56:18;19.33;;;3.67;;
77872;SDS011;67068;52.116;4.440;2024-01-25T07:58:44;13.57;;;3.35;;
77872;SDS011;67068;52.116;4.440;2024-01-25T08:01:09;20.03;;;4.07;;
77872;SDS011;67068;52.116;4.440;2024-01-25T08:03:34;17.23;;;3.93;;
77872;SDS011;67068;52.116;4.440;2024-01-25T08:05:59;17.60;;;3.23;;
77872;SDS011;67068;52.116;4.440;2024-01-25T08:08:25;15.77;;;3.38;;
77872;SDS011;67068;52.116;4.440;2024-01-25T08:10:50;16.90;;;3.67;;
77872;SDS011;67068;52.116;4.440;2024-01-25T08:13:15;18.97;;;3.33;;
77872;SDS011;67068;52.116;4.440;2024-01-25T08:15:40;13.97;;;3.20;;
77872;SDS011;67068;52.116;4.440;2024-01-25T08:18:06;15.70;;;3.30;;
77872;SDS011;67068;52.116;4.440;2024-01-25T08:20:31;12.47;;;2.80;;
77872;SDS011;67068;52.116;4.440;2024-01-25T08:22:56;16.33;;;4.13;;
77872;SDS011;67068;52.116;4.440;2024-01-25T08:25:21;15.48;;;4.00;;
77872;SDS011;67068;52.116;4.440;2024-01-25T08:27:47;14.18;;;3.20;;
77872;SDS011;67068;52.116;4.440;2024-01-25T08:30:12;18.20;;;4.30;;
77872;SDS011;67068;52.116;4.440;2024-01-25T08:32:37;18.55;;;4.30;;
77872;SDS011;67068;52.116;4.440;2024-01-25T08:35:03;15.10;;;3.57;;
77872;SDS011;67068;52.116;4.440;2024-01-25T08:37:28;17.05;;;3.25;;
77872;SDS011;67068;52.116;4.440;2024-01-25T08:39:53;16.93;;;3.63;;
77872;SDS011;67068;52.116;4.440;2024-01-25T08:42:18;12.07;;;2.73;;
77872;SDS011;67068;52.116;4.440;2024-01-25T08:44:44;16.35;;;3.08;;
77872;SDS011;67068;52.116;4.440;2024-01-25T08:47:15;14.05;;;3.60;;
77872;SDS011;67068;52.116;4.440;2024-01-25T08:49:40;18.00;;;3.53;;
77872;SDS011;67068;52.116;4.440;2024-01-25T08:52:05;14.30;;;3.50;;
77872;SDS011;67068;52.116;4.440;2024-01-25T08:54:31;16.17;;;3.15;;
77872;SDS011;67068;52.116;4.440;2024-01-25T08:56:57;12.40;;;2.87;;
77872;SDS011;67068;52.116;4.440;2024-01-25T08:59:22;13.33;;;3.07;;
77872;SDS011;67068;52.116;4.440;2024-01-25T09:01:47;12.00;;;2.93;;
77872;SDS011;67068;52.116;4.440;2024-01-25T09:04:12;17.33;;;3.43;;
77872;SDS011;67068;52.116;4.440;2024-01-25T09:06:38;17.08;;;3.50;;
77872;SDS011;67068;52.116;4.440;2024-01-25T09:09:03;10.93;;;3.10;;
77872;SDS011;67068;52.116;4.440;2024-01-25T09:11:28;17.17;;;3.83;;
77872;SDS011;67068;52.116;4.440;2024-01-25T09:13:54;13.13;;;3.03;;
77872;SDS011;67068;52.116;4.440;2024-01-25T09:16:19;19.67;;;4.13;;
77872;SDS011;67068;52.116;4.440;2024-01-25T09:18:45;24.83;;;4.60;;
77872;SDS011;67068;52.116;4.440;2024-01-25T09:21:10;20.27;;;3.43;;
77872;SDS011;67068;52.116;4.440;2024-01-25T09:23:35;12.77;;;3.23;;
77872;SDS011;67068;52.116;4.440;2024-01-25T09:26:00;21.87;;;3.83;;
77872;SDS011;67068;52.116;4.440;2024-01-25T09:28:25;16.07;;;2.93;;
77872;SDS011;67068;52.116;4.440;2024-01-25T09:30:51;17.27;;;3.53;;
77872;SDS011;67068;52.116;4.440;2024-01-25T09:33:16;12.87;;;2.90;;
77872;SDS011;67068;52.116;4.440;2024-01-25T09:35:41;20.77;;;4.63;;
77872;SDS011;67068;52.116;4.440;2024-01-25T09:38:06;18.57;;;3.17;;
77872;SDS011;67068;52.116;4.440;2024-01-25T09:40:32;18.00;;;3.20;;
77872;SDS011;67068;52.116;4.440;2024-01-25T09:42:58;15.88;;;3.28;;
77872;SDS011;67068;52.116;4.440;2024-01-25T09:45:23;17.40;;;3.40;;
77872;SDS011;67068;52.116;4.440;2024-01-25T09:47:49;15.00;;;3.13;;
77872;SDS011;67068;52.116;4.440;2024-01-25T09:50:14;15.73;;;2.93;;
77872;SDS011;67068;52.116;4.440;2024-01-25T09:52:39;13.20;;;3.22;;
77872;SDS011;67068;52.116;4.440;2024-01-25T09:55:06;20.73;;;4.97;;
77872;SDS011;67068;52.116;4.440;2024-01-25T09:57:32;15.48;;;3.20;;
77872;SDS011;67068;52.116;4.440;2024-01-25T10:00:00;15.25;;;2.88;;
77872;SDS011;67068;52.116;4.440;2024-01-25T10:02:26;16.92;;;3.70;;
77872;SDS011;67068;52.116;4.440;2024-01-25T10:04:51;18.00;;;3.33;;
77872;SDS011;67068;52.116;4.440;2024-01-25T10:10:03;17.90;;;3.25;;
77872;SDS011;67068;52.116;4.440;2024-01-25T10:12:30;18.58;;;3.65;;
77872;SDS011;67068;52.116;4.440;2024-01-25T10:14:55;20.43;;;3.83;;
77872;SDS011;67068;52.116;4.440;2024-01-25T10:17:20;19.67;;;4.33;;
77872;SDS011;67068;52.116;4.440;2024-01-25T10:19:45;21.13;;;4.83;;
77872;SDS011;67068;52.116;4.440;2024-01-25T10:22:11;17.17;;;4.65;;
77872;SDS011;67068;52.116;4.440;2024-01-25T10:24:38;20.55;;;4.22;;
77872;SDS011;67068;52.116;4.440;2024-01-25T10:27:03;14.07;;;4.20;;
77872;SDS011;67068;52.116;4.440;2024-01-25T10:29:29;24.23;;;5.07;;
77872;SDS011;67068;52.116;4.440;2024-01-25T10:31:54;16.00;;;3.97;;
77872;SDS011;67068;52.116;4.440;2024-01-25T10:34:19;21.88;;;4.38;;
77872;SDS011;67068;52.116;4.440;2024-01-25T10:36:45;14.85;;;4.45;;
77872;SDS011;67068;52.116;4.440;2024-01-25T10:39:11;15.80;;;3.28;;
77872;SDS011;67068;52.116;4.440;2024-01-25T10:41:38;19.77;;;4.55;;
77872;SDS011;67068;52.116;4.440;2024-01-25T10:44:04;24.45;;;4.22;;
77872;SDS011;67068;52.116;4.440;2024-01-25T10:46:31;22.38;;;4.32;;
77872;SDS011;67068;52.116;4.440;2024-01-25T10:48:57;14.02;;;3.97;;
77872;SDS011;67068;52.116;4.440;2024-01-25T10:51:22;18.15;;;4.00;;
77872;SDS011;67068;52.116;4.440;2024-01-25T10:53:48;19.77;;;4.93;;
77872;SDS011;67068;52.116;4.440;2024-01-25T10:56:13;16.17;;;3.97;;
77872;SDS011;67068;52.116;4.440;2024-01-25T10:58:40;20.77;;;4.17;;
77872;SDS011;67068;52.116;4.440;2024-01-25T11:01:09;21.38;;;4.53;;
77872;SDS011;67068;52.116;4.440;2024-01-25T11:03:38;19.80;;;4.72;;
77872;SDS011;67068;52.116;4.440;2024-01-25T11:06:07;19.50;;;3.80;;
77872;SDS011;67068;52.116;4.440;2024-01-25T11:08:36;17.92;;;4.07;;
77872;SDS011;67068;52.116;4.440;2024-01-25T11:11:03;19.70;;;3.75;;
77872;SDS011;67068;52.116;4.440;2024-01-25T11:13:31;19.48;;;4.50;;
77872;SDS011;67068;52.116;4.440;2024-01-25T11:15:56;17.02;;;4.05;;
77872;SDS011;67068;52.116;4.440;2024-01-25T11:18:24;17.03;;;4.83;;
77872;SDS011;67068;52.116;4.440;2024-01-25T11:20:50;24.15;;;4.97;;
77872;SDS011;67068;52.116;4.440;2024-01-25T11:23:15;19.33;;;3.43;;
77872;SDS011;67068;52.116;4.440;2024-01-25T11:25:43;19.73;;;4.00;;
77872;SDS011;67068;52.116;4.440;2024-01-25T11:28:08;16.52;;;3.40;;
77872;SDS011;67068;52.116;4.440;2024-01-25T11:30:34;19.60;;;4.30;;
77872;SDS011;67068;52.116;4.440;2024-01-25T11:33:00;22.52;;;4.30;;
77872;SDS011;67068;52.116;4.440;2024-01-25T11:35:25;17.35;;;3.95;;
77872;SDS011;67068;52.116;4.440;2024-01-25T11:37:51;17.48;;;3.45;;
77872;SDS011;67068;52.116;4.440;2024-01-25T11:40:17;17.35;;;3.58;;
77872;SDS011;67068;52.116;4.440;2024-01-25T11:42:43;17.88;;;3.90;;
77872;SDS011;67068;52.116;4.440;2024-01-25T11:45:11;15.80;;;3.60;;
77872;SDS011;67068;52.116;4.440;2024-01-25T11:47:37;19.45;;;5.38;;
77872;SDS011;67068;52.116;4.440;2024-01-25T11:50:03;22.20;;;4.38;;
77872;SDS011;67068;52.116;4.440;2024-01-25T11:52:28;26.65;;;5.15;;
77872;SDS011;67068;52.116;4.440;2024-01-25T11:54:54;18.63;;;3.63;;
77872;SDS011;67068;52.116;4.440;2024-01-25T11:57:19;20.30;;;4.40;;
77872;SDS011;67068;52.116;4.440;2024-01-25T11:59:45;24.15;;;4.18;;
77872;SDS011;67068;52.116;4.440;2024-01-25T12:02:11;15.68;;;3.80;;
77872;SDS011;67068;52.116;4.440;2024-01-25T12:04:37;18.42;;;4.32;;
77872;SDS011;67068;52.116;4.440;2024-01-25T12:07:02;17.37;;;4.77;;
77872;SDS011;67068;52.116;4.440;2024-01-25T12:09:28;19.50;;;4.60;;
77872;SDS011;67068;52.116;4.440;2024-01-25T12:11:53;23.67;;;4.60;;
77872;SDS011;67068;52.116;4.440;2024-01-25T12:14:18;24.83;;;4.90;;
77872;SDS011;67068;52.116;4.440;2024-01-25T12:16:43;20.20;;;3.97;;
77872;SDS011;67068;52.116;4.440;2024-01-25T12:19:08;22.77;;;4.97;;
77872;SDS011;67068;52.116;4.440;2024-01-25T12:21:34;20.20;;;4.70;;
77872;SDS011;67068;52.116;4.440;2024-01-25T12:23:59;20.88;;;3.95;;
77872;SDS011;67068;52.116;4.440;2024-01-25T12:26:25;18.17;;;4.37;;
77872;SDS011;67068;52.116;4.440;2024-01-25T12:28:50;18.67;;;3.80;;
77872;SDS011;67068;52.116;4.440;2024-01-25T12:31:15;19.48;;;4.47;;
77872;SDS011;67068;52.116;4.440;2024-01-25T12:33:41;18.70;;;4.57;;
77872;SDS011;67068;52.116;4.440;2024-01-25T12:36:06;22.02;;;4.90;;
77872;SDS011;67068;52.116;4.440;2024-01-25T12:38:32;20.05;;;4.65;;
77872;SDS011;67068;52.116;4.440;2024-01-25T12:40:59;21.23;;;4.85;;
77872;SDS011;67068;52.116;4.440;2024-01-25T12:43:24;18.50;;;4.03;;
77872;SDS011;67068;52.116;4.440;2024-01-25T12:45:50;20.53;;;4.70;;
77872;SDS011;67068;52.116;4.440;2024-01-25T12:48:15;17.67;;;4.77;;
77872;SDS011;67068;52.116;4.440;2024-01-25T12:50:41;18.20;;;4.28;;
77872;SDS011;67068;52.116;4.440;2024-01-25T12:53:06;18.60;;;4.38;;
77872;SDS011;67068;52.116;4.440;2024-01-25T12:55:32;15.27;;;3.67;;
77872;SDS011;67068;52.116;4.440;2024-01-25T12:57:58;17.48;;;4.40;;
77872;SDS011;67068;52.116;4.440;2024-01-25T13:00:23;18.40;;;4.45;;
77872;SDS011;67068;52.116;4.440;2024-01-25T13:02:49;14.67;;;3.17;;
77872;SDS011;67068;52.116;4.440;2024-01-25T13:05:14;18.00;;;3.60;;
77872;SDS011;67068;52.116;4.440;2024-01-25T13:07:40;20.25;;;3.50;;
77872;SDS011;67068;52.116;4.440;2024-01-25T13:10:05;23.27;;;4.82;;
77872;SDS011;67068;52.116;4.440;2024-01-25T13:12:31;20.65;;;3.85;;
77872;SDS011;67068;52.116;4.440;2024-01-25T13:14:56;17.67;;;4.53;;
77872;SDS011;67068;52.116;4.440;2024-01-25T13:17:21;23.27;;;5.00;;
77872;SDS011;67068;52.116;4.440;2024-01-25T13:19:49;25.27;;;4.22;;
77872;SDS011;67068;52.116;4.440;2024-01-25T13:22:14;19.77;;;4.67;;
77872;SDS011;67068;52.116;4.440;2024-01-25T13:24:41;20.65;;;4.65;;
77872;SDS011;67068;52.116;4.440;2024-01-25T13:27:06;19.63;;;4.70;;
77872;SDS011;67068;52.116;4.440;2024-01-25T13:29:31;22.43;;;4.70;;
77872;SDS011;67068;52.116;4.440;2024-01-25T13:31:56;19.40;;;5.57;;
77872;SDS011;67068;52.116;4.440;2024-01-25T13:34:21;23.43;;;4.30;;
77872;SDS011;67068;52.116;4.440;2024-01-25T13:36:47;28.17;;;4.47;;
77872;SDS011;67068;52.116;4.440;2024-01-25T13:39:12;21.10;;;4.27;;
77872;SDS011;67068;52.116;4.440;2024-01-25T13:41:37;19.07;;;4.63;;
77872;SDS011;67068;52.116;4.440;2024-01-25T13:44:03;22.20;;;4.35;;
77872;SDS011;67068;52.116;4.440;2024-01-25T13:46:28;19.30;;;4.43;;
77872;SDS011;67068;52.116;4.440;2024-01-25T13:48:53;21.80;;;4.33;;
77872;SDS011;67068;52.116;4.440;2024-01-25T13:51:18;20.63;;;4.40;;
77872;SDS011;67068;52.116;4.440;2024-01-25T13:53:43;21.43;;;4.60;;
77872;SDS011;67068;52.116;4.440;2024-01-25T13:56:09;18.77;;;4.45;;
77872;SDS011;67068;52.116;4.440;2024-01-25T13:58:34;21.37;;;4.37;;
77872;SDS011;67068;52.116;4.440;2024-01-25T14:00:59;16.57;;;4.33;;
77872;SDS011;67068;52.116;4.440;2024-01-25T14:03:25;18.67;;;4.17;;
77872;SDS011;67068;52.116;4.440;2024-01-25T14:05:50;20.27;;;4.63;;
77872;SDS011;67068;52.116;4.440;2024-01-25T14:08:15;24.77;;;4.63;;
77872;SDS011;67068;52.116;4.440;2024-01-25T14:10:41;19.08;;;5.13;;
77872;SDS011;67068;52.116;4.440;2024-01-25T14:13:07;15.10;;;4.50;;
77872;SDS011;67068;52.116;4.440;2024-01-25T14:15:32;21.67;;;5.47;;
77872;SDS011;67068;52.116;4.440;2024-01-25T14:17:57;19.03;;;4.17;;
77872;SDS011;67068;52.116;4.440;2024-01-25T14:20:23;20.75;;;5.10;;
77872;SDS011;67068;52.116;4.440;2024-01-25T14:22:49;16.40;;;4.03;;
77872;SDS011;67068;52.116;4.440;2024-01-25T14:25:14;16.90;;;4.25;;
77872;SDS011;67068;52.116;4.440;2024-01-25T14:27:39;16.77;;;4.50;;